sensor_id;sensor_type;location;lat;lon;timestamp;pressure;altitude;pressure_sealevel;temperature;humidity
13934;BME280;7039;52.168;9.866;2022-11-14T00:00:48;101036.84;;;6.41;97.72
13934;BME280;7039;52.168;9.866;2022-11-14T00:03:15;101030.13;;;6.33;97.93
13934;BME280;7039;52.168;9.866;2022-11-14T00:05:44;101025.63;;;6.41;97.90
13934;BME280;7039;52.168;9.866;2022-11-14T00:08:14;101024.69;;;6.45;97.49
13934;BME280;7039;52.168;9.866;2022-11-14T00:10:41;101022.00;;;6.48;96.83
13934;BME280;7039;52.168;9.866;2022-11-14T00:13:08;101021.31;;;6.41;97.14
13934;BME280;7039;52.168;9.866;2022-11-14T00:15:34;101015.59;;;6.27;97.75
13934;BME280;7039;52.168;9.866;2022-11-14T00:18:03;101022.22;;;6.39;97.31
13934;BME280;7039;52.168;9.866;2022-11-14T00:20:31;101025.63;;;6.41;97.38
13934;BME280;7039;52.168;9.866;2022-11-14T00:22:58;101020.69;;;6.32;97.48
13934;BME280;7039;52.168;9.866;2022-11-14T00:25:24;101024.09;;;6.32;97.42
13934;BME280;7039;52.168;9.866;2022-11-14T00:27:51;101022.38;;;6.33;97.45
13934;BME280;7039;52.168;9.866;2022-11-14T00:30:17;101016.19;;;6.38;97.36
13934;BME280;7039;52.168;9.866;2022-11-14T00:32:44;101007.72;;;6.32;97.44
13934;BME280;7039;52.168;9.866;2022-11-14T00:35:12;101010.94;;;6.41;97.29
13934;BME280;7039;52.168;9.866;2022-11-14T00:37:38;100994.78;;;6.32;97.67
13934;BME280;7039;52.168;9.866;2022-11-14T00:40:06;101000.69;;;6.37;97.30
13934;BME280;7039;52.168;9.866;2022-11-14T00:42:33;100998.84;;;6.40;96.95
13934;BME280;7039;52.168;9.866;2022-11-14T00:44:59;100996.31;;;6.39;96.73
13934;BME280;7039;52.168;9.866;2022-11-14T00:47:26;100994.47;;;6.44;96.59
13934;BME280;7039;52.168;9.866;2022-11-14T00:49:53;100991.91;;;6.42;96.90
13934;BME280;7039;52.168;9.866;2022-11-14T00:52:21;100982.31;;;6.46;96.53
13934;BME280;7039;52.168;9.866;2022-11-14T00:54:47;100984.88;;;6.47;96.63
13934;BME280;7039;52.168;9.866;2022-11-14T00:57:14;100982.34;;;6.44;96.46
13934;BME280;7039;52.168;9.866;2022-11-14T00:59:40;100983.94;;;6.50;96.50
13934;BME280;7039;52.168;9.866;2022-11-14T01:02:07;100985.22;;;6.34;96.81
13934;BME280;7039;52.168;9.866;2022-11-14T01:04:34;100979.88;;;6.40;97.00
13934;BME280;7039;52.168;9.866;2022-11-14T01:07:00;100980.66;;;6.43;96.77
13934;BME280;7039;52.168;9.866;2022-11-14T01:09:28;100978.72;;;6.52;96.42
13934;BME280;7039;52.168;9.866;2022-11-14T01:11:55;100974.66;;;6.41;96.16
13934;BME280;7039;52.168;9.866;2022-11-14T01:14:21;100981.47;;;6.45;96.50
13934;BME280;7039;52.168;9.866;2022-11-14T01:16:48;100975.44;;;6.45;96.45
13934;BME280;7039;52.168;9.866;2022-11-14T01:19:15;100979.66;;;6.49;96.49
13934;BME280;7039;52.168;9.866;2022-11-14T01:21:41;100964.19;;;6.46;95.98
13934;BME280;7039;52.168;9.866;2022-11-14T01:24:08;100966.66;;;6.51;96.11
13934;BME280;7039;52.168;9.866;2022-11-14T01:26:36;100961.59;;;6.46;96.17
13934;BME280;7039;52.168;9.866;2022-11-14T01:29:02;100958.88;;;6.51;95.72
13934;BME280;7039;52.168;9.866;2022-11-14T01:31:29;100954.66;;;6.46;95.70
13934;BME280;7039;52.168;9.866;2022-11-14T01:33:55;100953.00;;;6.44;96.04
13934;BME280;7039;52.168;9.866;2022-11-14T01:36:22;100944.50;;;6.39;96.15
13934;BME280;7039;52.168;9.866;2022-11-14T01:38:51;100939.22;;;6.42;96.38
13934;BME280;7039;52.168;9.866;2022-11-14T01:41:18;100934.38;;;6.30;96.43
13934;BME280;7039;52.168;9.866;2022-11-14T01:43:46;100931.94;;;6.23;96.84
13934;BME280;7039;52.168;9.866;2022-11-14T01:46:16;100933.94;;;6.12;97.45
13934;BME280;7039;52.168;9.866;2022-11-14T01:48:48;100930.19;;;6.24;97.03
13934;BME280;7039;52.168;9.866;2022-11-14T01:51:23;100923.25;;;6.24;97.00
13934;BME280;7039;52.168;9.866;2022-11-14T01:53:54;100915.66;;;6.18;96.47
13934;BME280;7039;52.168;9.866;2022-11-14T01:56:27;100918.28;;;6.17;96.57
13934;BME280;7039;52.168;9.866;2022-11-14T01:58:59;100909.00;;;6.08;96.83
13934;BME280;7039;52.168;9.866;2022-11-14T02:01:29;100909.75;;;6.13;96.63
13934;BME280;7039;52.168;9.866;2022-11-14T02:03:58;100910.63;;;6.12;96.83
13934;BME280;7039;52.168;9.866;2022-11-14T02:06:28;100905.63;;;6.04;96.79
13934;BME280;7039;52.168;9.866;2022-11-14T02:08:57;100915.91;;;6.07;97.00
13934;BME280;7039;52.168;9.866;2022-11-14T02:11:28;100910.81;;;6.04;97.06
13934;BME280;7039;52.168;9.866;2022-11-14T02:13:57;100901.44;;;5.99;97.08
13934;BME280;7039;52.168;9.866;2022-11-14T02:16:24;100910.19;;;5.93;97.15
13934;BME280;7039;52.168;9.866;2022-11-14T02:18:51;100906.56;;;6.02;96.67
13934;BME280;7039;52.168;9.866;2022-11-14T02:21:19;100896.94;;;6.07;96.50
13934;BME280;7039;52.168;9.866;2022-11-14T02:23:46;100896.53;;;5.86;96.81
13934;BME280;7039;52.168;9.866;2022-11-14T02:26:15;100898.94;;;5.96;97.06
13934;BME280;7039;52.168;9.866;2022-11-14T02:28:43;100897.09;;;5.99;96.57
13934;BME280;7039;52.168;9.866;2022-11-14T02:31:09;100894.41;;;6.04;96.52
13934;BME280;7039;52.168;9.866;2022-11-14T02:33:36;100896.81;;;6.13;95.91
13934;BME280;7039;52.168;9.866;2022-11-14T02:36:03;100893.41;;;6.10;95.75
13934;BME280;7039;52.168;9.866;2022-11-14T02:38:31;100880.69;;;6.02;96.14
13934;BME280;7039;52.168;9.866;2022-11-14T02:40:58;100883.28;;;6.00;95.74
13934;BME280;7039;52.168;9.866;2022-11-14T02:43:25;100879.84;;;6.00;95.70
13934;BME280;7039;52.168;9.866;2022-11-14T02:45:52;100888.47;;;6.00;95.51
13934;BME280;7039;52.168;9.866;2022-11-14T02:48:18;100891.94;;;5.99;95.33
13934;BME280;7039;52.168;9.866;2022-11-14T02:50:47;100886.69;;;6.02;95.63
13934;BME280;7039;52.168;9.866;2022-11-14T02:53:13;100884.94;;;6.04;95.44
13934;BME280;7039;52.168;9.866;2022-11-14T02:55:41;100892.69;;;6.04;95.26
13934;BME280;7039;52.168;9.866;2022-11-14T02:58:08;100891.91;;;6.01;95.65
13934;BME280;7039;52.168;9.866;2022-11-14T03:00:34;100881.53;;;6.02;95.14
13934;BME280;7039;52.168;9.866;2022-11-14T03:03:01;100884.03;;;6.05;94.79
13934;BME280;7039;52.168;9.866;2022-11-14T03:05:28;100877.06;;;6.07;94.75
13934;BME280;7039;52.168;9.866;2022-11-14T03:07:55;100873.88;;;5.98;95.05
13934;BME280;7039;52.168;9.866;2022-11-14T03:10:22;100867.03;;;5.94;94.57
13934;BME280;7039;52.168;9.866;2022-11-14T03:12:53;100880.00;;;5.92;95.43
13934;BME280;7039;52.168;9.866;2022-11-14T03:15:20;100867.03;;;5.95;95.24
13934;BME280;7039;52.168;9.866;2022-11-14T03:17:47;100869.63;;;5.95;95.11
13934;BME280;7039;52.168;9.866;2022-11-14T03:20:13;100871.09;;;6.04;94.97
13934;BME280;7039;52.168;9.866;2022-11-14T03:22:40;100873.69;;;6.04;94.66
13934;BME280;7039;52.168;9.866;2022-11-14T03:25:07;100870.09;;;6.11;94.57
13934;BME280;7039;52.168;9.866;2022-11-14T03:27:33;100863.19;;;6.10;94.32
13934;BME280;7039;52.168;9.866;2022-11-14T03:30:02;100870.78;;;6.18;94.65
13934;BME280;7039;52.168;9.866;2022-11-14T03:32:28;100857.03;;;6.16;94.16
13934;BME280;7039;52.168;9.866;2022-11-14T03:34:55;100856.91;;;6.20;94.16
13934;BME280;7039;52.168;9.866;2022-11-14T03:37:22;100850.19;;;6.13;94.12
13934;BME280;7039;52.168;9.866;2022-11-14T03:39:49;100848.47;;;6.12;94.16
13934;BME280;7039;52.168;9.866;2022-11-14T03:42:15;100845.03;;;6.12;94.06
13934;BME280;7039;52.168;9.866;2022-11-14T03:44:42;100845.97;;;6.09;94.25
13934;BME280;7039;52.168;9.866;2022-11-14T03:47:10;100850.94;;;6.17;94.10
13934;BME280;7039;52.168;9.866;2022-11-14T03:49:36;100840.69;;;6.12;93.94
13934;BME280;7039;52.168;9.866;2022-11-14T03:52:03;100820.94;;;6.08;93.94
13934;BME280;7039;52.168;9.866;2022-11-14T03:54:30;100829.41;;;6.15;93.58
13934;BME280;7039;52.168;9.866;2022-11-14T03:56:56;100821.84;;;6.07;93.54
13934;BME280;7039;52.168;9.866;2022-11-14T03:59:23;100815.84;;;6.05;93.62
13934;BME280;7039;52.168;9.866;2022-11-14T04:01:49;100816.66;;;6.07;93.38
13934;BME280;7039;52.168;9.866;2022-11-14T04:04:17;100823.63;;;6.05;93.58
13934;BME280;7039;52.168;9.866;2022-11-14T04:06:44;100824.72;;;5.95;93.67
13934;BME280;7039;52.168;9.866;2022-11-14T04:09:11;100822.13;;;5.96;93.20
13934;BME280;7039;52.168;9.866;2022-11-14T04:11:37;100813.50;;;5.96;93.20
13934;BME280;7039;52.168;9.866;2022-11-14T04:14:04;100811.16;;;5.85;93.28
13934;BME280;7039;52.168;9.866;2022-11-14T04:16:31;100809.13;;;5.62;93.89
13934;BME280;7039;52.168;9.866;2022-11-14T04:18:57;100809.97;;;5.62;93.95
13934;BME280;7039;52.168;9.866;2022-11-14T04:21:25;100804.16;;;5.54;94.29
13934;BME280;7039;52.168;9.866;2022-11-14T04:23:52;100805.84;;;5.55;94.48
13934;BME280;7039;52.168;9.866;2022-11-14T04:26:19;100799.81;;;5.55;94.42
13934;BME280;7039;52.168;9.866;2022-11-14T04:28:45;100804.78;;;5.62;94.22
13934;BME280;7039;52.168;9.866;2022-11-14T04:31:12;100796.19;;;5.62;94.26
13934;BME280;7039;52.168;9.866;2022-11-14T04:33:39;100790.53;;;5.46;94.46
13934;BME280;7039;52.168;9.866;2022-11-14T04:36:06;100802.31;;;5.58;94.41
13934;BME280;7039;52.168;9.866;2022-11-14T04:38:34;100794.66;;;5.55;93.92
13934;BME280;7039;52.168;9.866;2022-11-14T04:41:01;100792.97;;;5.52;93.96
13934;BME280;7039;52.168;9.866;2022-11-14T04:43:27;100778.44;;;5.47;94.20
13934;BME280;7039;52.168;9.866;2022-11-14T04:45:54;100783.69;;;5.43;94.61
13934;BME280;7039;52.168;9.866;2022-11-14T04:48:21;100785.59;;;5.37;94.57
13934;BME280;7039;52.168;9.866;2022-11-14T04:50:47;100783.88;;;5.36;94.41
13934;BME280;7039;52.168;9.866;2022-11-14T04:53:14;100773.69;;;5.30;94.61
13934;BME280;7039;52.168;9.866;2022-11-14T04:55:42;100780.75;;;5.21;94.78
13934;BME280;7039;52.168;9.866;2022-11-14T04:58:09;100780.72;;;5.23;94.59
13934;BME280;7039;52.168;9.866;2022-11-14T05:00:36;100772.94;;;5.25;94.74
13934;BME280;7039;52.168;9.866;2022-11-14T05:03:02;100777.25;;;5.24;94.38
13934;BME280;7039;52.168;9.866;2022-11-14T05:05:30;100767.69;;;5.28;94.71
13934;BME280;7039;52.168;9.866;2022-11-14T05:07:57;100773.69;;;5.30;95.06
13934;BME280;7039;52.168;9.866;2022-11-14T05:10:24;100771.81;;;5.35;94.81
13934;BME280;7039;52.168;9.866;2022-11-14T05:12:53;100755.41;;;5.36;94.75
13934;BME280;7039;52.168;9.866;2022-11-14T05:15:20;100756.34;;;5.33;94.78
13934;BME280;7039;52.168;9.866;2022-11-14T05:17:46;100757.38;;;5.26;94.68
13934;BME280;7039;52.168;9.866;2022-11-14T05:20:13;100767.56;;;5.34;94.65
13934;BME280;7039;52.168;9.866;2022-11-14T05:22:40;100770.19;;;5.31;94.25
13934;BME280;7039;52.168;9.866;2022-11-14T05:27:51;100777.19;;;5.27;94.91
13934;BME280;7039;52.168;9.866;2022-11-14T05:30:19;100781.47;;;5.28;94.60
13934;BME280;7039;52.168;9.866;2022-11-14T05:32:46;100783.22;;;5.26;94.33
13934;BME280;7039;52.168;9.866;2022-11-14T05:35:13;100778.97;;;5.25;94.55
13934;BME280;7039;52.168;9.866;2022-11-14T05:37:40;100780.53;;;5.31;94.21
13934;BME280;7039;52.168;9.866;2022-11-14T05:40:07;100774.56;;;5.29;94.11
13934;BME280;7039;52.168;9.866;2022-11-14T05:42:34;100774.59;;;5.27;93.97
13934;BME280;7039;52.168;9.866;2022-11-14T05:45:01;100776.69;;;5.11;94.71
13934;BME280;7039;52.168;9.866;2022-11-14T05:57:36;100750.03;;;5.09;94.80
13934;BME280;7039;52.168;9.866;2022-11-14T06:00:38;100747.50;;;5.06;94.83
13934;BME280;7039;52.168;9.866;2022-11-14T06:06:41;100767.72;;;5.26;94.32
13934;BME280;7039;52.168;9.866;2022-11-14T06:09:46;100754.88;;;5.23;94.55
13934;BME280;7039;52.168;9.866;2022-11-14T06:12:31;100747.16;;;5.20;94.65
13934;BME280;7039;52.168;9.866;2022-11-14T06:21:31;100749.88;;;5.15;94.93
13934;BME280;7039;52.168;9.866;2022-11-14T06:24:14;100747.13;;;5.21;95.00
13934;BME280;7039;52.168;9.866;2022-11-14T06:27:26;100746.09;;;5.29;94.68
13934;BME280;7039;52.168;9.866;2022-11-14T06:33:43;100748.81;;;5.24;94.73
13934;BME280;7039;52.168;9.866;2022-11-14T06:36:28;100737.47;;;5.30;94.64
13934;BME280;7039;52.168;9.866;2022-11-14T06:39:04;100744.34;;;5.31;94.35
13934;BME280;7039;52.168;9.866;2022-11-14T06:41:32;100743.00;;;5.14;94.56
13934;BME280;7039;52.168;9.866;2022-11-14T06:44:00;100737.94;;;5.10;95.09
13934;BME280;7039;52.168;9.866;2022-11-14T06:46:28;100750.69;;;5.17;95.05
13934;BME280;7039;52.168;9.866;2022-11-14T06:52:30;100739.28;;;5.26;94.76
13934;BME280;7039;52.168;9.866;2022-11-14T06:57:44;100741.91;;;5.25;95.00
13934;BME280;7039;52.168;9.866;2022-11-14T07:03:28;100748.06;;;5.19;94.77
13934;BME280;7039;52.168;9.866;2022-11-14T07:09:24;100747.22;;;5.18;94.96
13934;BME280;7039;52.168;9.866;2022-11-14T07:12:39;100750.66;;;5.19;95.07
13934;BME280;7039;52.168;9.866;2022-11-14T07:18:50;100740.38;;;5.16;95.40
13934;BME280;7039;52.168;9.866;2022-11-14T07:21:19;100740.44;;;5.13;95.79
13934;BME280;7039;52.168;9.866;2022-11-14T07:23:47;100748.16;;;5.16;95.84
13934;BME280;7039;52.168;9.866;2022-11-14T07:26:17;100751.38;;;5.26;95.52
13934;BME280;7039;52.168;9.866;2022-11-14T07:29:00;100747.88;;;5.27;94.95
13934;BME280;7039;52.168;9.866;2022-11-14T07:34:48;100760.03;;;5.25;94.88
13934;BME280;7039;52.168;9.866;2022-11-14T07:37:19;100768.47;;;5.31;94.74
13934;BME280;7039;52.168;9.866;2022-11-14T07:39:53;100750.31;;;5.33;94.51
13934;BME280;7039;52.168;9.866;2022-11-14T07:45:41;100748.22;;;5.49;94.27
13934;BME280;7039;52.168;9.866;2022-11-14T07:48:24;100747.50;;;5.43;94.27
13934;BME280;7039;52.168;9.866;2022-11-14T07:51:18;100736.25;;;5.44;94.58
13934;BME280;7039;52.168;9.866;2022-11-14T07:54:51;100724.47;;;5.33;95.14
13934;BME280;7039;52.168;9.866;2022-11-14T08:03:52;100731.16;;;5.41;95.36
13934;BME280;7039;52.168;9.866;2022-11-14T08:23:58;100755.63;;;5.62;93.16
13934;BME280;7039;52.168;9.866;2022-11-14T08:27:18;100748.06;;;5.55;93.14
13934;BME280;7039;52.168;9.866;2022-11-14T08:30:00;100753.13;;;5.59;92.99
13934;BME280;7039;52.168;9.866;2022-11-14T08:32:44;100760.69;;;5.67;92.60
13934;BME280;7039;52.168;9.866;2022-11-14T08:35:12;100756.41;;;5.66;92.84
13934;BME280;7039;52.168;9.866;2022-11-14T08:37:41;100756.22;;;5.74;92.51
13934;BME280;7039;52.168;9.866;2022-11-14T08:44:08;100741.94;;;5.92;92.44
13934;BME280;7039;52.168;9.866;2022-11-14T08:46:51;100740.28;;;5.89;92.14
13934;BME280;7039;52.168;9.866;2022-11-14T08:49:41;100740.38;;;5.86;91.84
13934;BME280;7039;52.168;9.866;2022-11-14T08:56:04;100734.94;;;5.97;92.05
13934;BME280;7039;52.168;9.866;2022-11-14T08:58:31;100745.94;;;6.05;91.52
13934;BME280;7039;52.168;9.866;2022-11-14T09:00:59;100740.16;;;5.94;91.71
13934;BME280;7039;52.168;9.866;2022-11-14T09:03:26;100739.81;;;6.09;91.70
13934;BME280;7039;52.168;9.866;2022-11-14T09:05:53;100745.44;;;6.23;91.06
13934;BME280;7039;52.168;9.866;2022-11-14T09:08:19;100746.13;;;6.30;90.68
13934;BME280;7039;52.168;9.866;2022-11-14T09:10:46;100742.69;;;6.30;89.79
13934;BME280;7039;52.168;9.866;2022-11-14T09:13:14;100744.91;;;6.42;89.75
13934;BME280;7039;52.168;9.866;2022-11-14T09:15:41;100739.72;;;6.42;89.58
13934;BME280;7039;52.168;9.866;2022-11-14T09:18:08;100727.56;;;6.45;89.13
13934;BME280;7039;52.168;9.866;2022-11-14T09:20:35;100735.22;;;6.48;88.87
13934;BME280;7039;52.168;9.866;2022-11-14T09:23:02;100724.63;;;6.56;88.48
13934;BME280;7039;52.168;9.866;2022-11-14T09:25:29;100719.09;;;6.68;88.53
13934;BME280;7039;52.168;9.866;2022-11-14T09:27:56;100714.66;;;6.72;87.89
13934;BME280;7039;52.168;9.866;2022-11-14T09:30:24;100711.91;;;6.77;87.80
13934;BME280;7039;52.168;9.866;2022-11-14T09:32:50;100697.97;;;6.53;87.52
13934;BME280;7039;52.168;9.866;2022-11-14T09:35:17;100699.66;;;6.54;88.07
13934;BME280;7039;52.168;9.866;2022-11-14T09:37:43;100700.25;;;6.63;88.05
13934;BME280;7039;52.168;9.866;2022-11-14T09:40:11;100705.91;;;6.76;87.42
13934;BME280;7039;52.168;9.866;2022-11-14T09:43:01;100702.69;;;6.96;86.66
13934;BME280;7039;52.168;9.866;2022-11-14T09:45:33;100692.78;;;6.81;87.08
13934;BME280;7039;52.168;9.866;2022-11-14T09:48:05;100684.72;;;6.90;86.60
13934;BME280;7039;52.168;9.866;2022-11-14T09:50:37;100668.38;;;6.88;86.24
13934;BME280;7039;52.168;9.866;2022-11-14T09:53:10;100665.72;;;6.89;86.15
13934;BME280;7039;52.168;9.866;2022-11-14T09:55:39;100667.00;;;7.04;85.60
13934;BME280;7039;52.168;9.866;2022-11-14T09:58:11;100670.97;;;7.15;85.05
13934;BME280;7039;52.168;9.866;2022-11-14T10:00:47;100670.78;;;7.21;84.59
13934;BME280;7039;52.168;9.866;2022-11-14T10:03:22;100675.13;;;7.20;84.25
13934;BME280;7039;52.168;9.866;2022-11-14T10:06:06;100664.91;;;7.16;84.44
13934;BME280;7039;52.168;9.866;2022-11-14T10:08:46;100658.78;;;7.18;84.74
13934;BME280;7039;52.168;9.866;2022-11-14T10:11:21;100661.50;;;7.14;84.97
13934;BME280;7039;52.168;9.866;2022-11-14T10:14:00;100651.72;;;7.22;84.78
13934;BME280;7039;52.168;9.866;2022-11-14T10:16:36;100653.34;;;7.24;84.96
13934;BME280;7039;52.168;9.866;2022-11-14T10:19:14;100664.88;;;7.42;84.27
13934;BME280;7039;52.168;9.866;2022-11-14T10:21:53;100663.66;;;7.27;84.05
13934;BME280;7039;52.168;9.866;2022-11-14T10:24:50;100650.06;;;7.46;84.33
13934;BME280;7039;52.168;9.866;2022-11-14T10:27:25;100645.28;;;7.59;83.73
13934;BME280;7039;52.168;9.866;2022-11-14T10:30:02;100651.97;;;7.66;83.32
13934;BME280;7039;52.168;9.866;2022-11-14T10:32:50;100641.94;;;7.55;84.18
13934;BME280;7039;52.168;9.866;2022-11-14T10:35:23;100640.78;;;7.64;83.81
13934;BME280;7039;52.168;9.866;2022-11-14T10:37:57;100657.16;;;7.66;83.47
13934;BME280;7039;52.168;9.866;2022-11-14T10:40:32;100656.66;;;7.80;82.64
13934;BME280;7039;52.168;9.866;2022-11-14T10:43:06;100652.59;;;7.96;82.02
13934;BME280;7039;52.168;9.866;2022-11-14T10:45:42;100644.19;;;7.89;81.59
13934;BME280;7039;52.168;9.866;2022-11-14T10:48:27;100624.72;;;7.78;82.47
13934;BME280;7039;52.168;9.866;2022-11-14T10:50:57;100655.50;;;7.88;82.37
13934;BME280;7039;52.168;9.866;2022-11-14T10:53:28;100658.09;;;7.88;82.55
13934;BME280;7039;52.168;9.866;2022-11-14T10:55:57;100653.69;;;7.90;82.07
13934;BME280;7039;52.168;9.866;2022-11-14T10:58:25;100643.41;;;7.87;82.08
13934;BME280;7039;52.168;9.866;2022-11-14T11:00:51;100633.50;;;7.73;82.32
13934;BME280;7039;52.168;9.866;2022-11-14T11:03:19;100631.59;;;7.79;83.10
13934;BME280;7039;52.168;9.866;2022-11-14T11:05:48;100632.97;;;7.89;82.67
13934;BME280;7039;52.168;9.866;2022-11-14T11:08:19;100626.16;;;8.08;82.59
13934;BME280;7039;52.168;9.866;2022-11-14T11:11:06;100634.22;;;8.02;82.02
13934;BME280;7039;52.168;9.866;2022-11-14T11:13:57;100623.81;;;8.02;82.15
13934;BME280;7039;52.168;9.866;2022-11-14T11:16:26;100614.81;;;7.87;81.95
13934;BME280;7039;52.168;9.866;2022-11-14T11:19:13;100618.31;;;8.10;81.91
13934;BME280;7039;52.168;9.866;2022-11-14T11:21:46;100621.53;;;8.16;81.78
13934;BME280;7039;52.168;9.866;2022-11-14T11:24:29;100635.03;;;8.26;82.09
13934;BME280;7039;52.168;9.866;2022-11-14T11:27:12;100627.25;;;8.50;81.50
13934;BME280;7039;52.168;9.866;2022-11-14T11:29:39;100624.09;;;8.42;80.90
13934;BME280;7039;52.168;9.866;2022-11-14T11:32:07;100614.69;;;8.37;80.71
13934;BME280;7039;52.168;9.866;2022-11-14T11:34:35;100620.00;;;8.34;81.17
13934;BME280;7039;52.168;9.866;2022-11-14T11:37:05;100610.81;;;8.49;80.58
13934;BME280;7039;52.168;9.866;2022-11-14T11:39:39;100610.97;;;8.67;80.59
13934;BME280;7039;52.168;9.866;2022-11-14T11:42:10;100604.50;;;8.77;79.85
13934;BME280;7039;52.168;9.866;2022-11-14T11:44:45;100620.44;;;8.90;79.58
13934;BME280;7039;52.168;9.866;2022-11-14T11:47:16;100618.94;;;9.06;78.66
13934;BME280;7039;52.168;9.866;2022-11-14T11:49:46;100621.19;;;9.14;78.31
13934;BME280;7039;52.168;9.866;2022-11-14T11:52:17;100607.72;;;9.04;78.08
13934;BME280;7039;52.168;9.866;2022-11-14T11:54:56;100613.25;;;9.17;78.32
13934;BME280;7039;52.168;9.866;2022-11-14T11:57:29;100604.94;;;9.09;77.82
13934;BME280;7039;52.168;9.866;2022-11-14T12:00:03;100607.78;;;9.03;78.35
13934;BME280;7039;52.168;9.866;2022-11-14T12:02:31;100605.97;;;9.25;78.12
13934;BME280;7039;52.168;9.866;2022-11-14T12:04:59;100600.31;;;9.36;77.37
13934;BME280;7039;52.168;9.866;2022-11-14T12:07:36;100596.34;;;9.48;77.22
13934;BME280;7039;52.168;9.866;2022-11-14T12:10:10;100597.50;;;9.61;76.87
13934;BME280;7039;52.168;9.866;2022-11-14T12:15:53;100582.31;;;9.71;76.11
13934;BME280;7039;52.168;9.866;2022-11-14T12:18:37;100585.53;;;9.57;76.62
13934;BME280;7039;52.168;9.866;2022-11-14T12:21:18;100573.44;;;9.75;76.68
13934;BME280;7039;52.168;9.866;2022-11-14T12:24:05;100582.25;;;9.91;75.96
13934;BME280;7039;52.168;9.866;2022-11-14T12:26:45;100584.66;;;10.34;76.41
13934;BME280;7039;52.168;9.866;2022-11-14T12:29:26;100583.50;;;10.39;74.98
13934;BME280;7039;52.168;9.866;2022-11-14T12:31:57;100585.84;;;10.45;74.20
13934;BME280;7039;52.168;9.866;2022-11-14T12:34:27;100582.34;;;10.64;73.95
13934;BME280;7039;52.168;9.866;2022-11-14T12:36:57;100579.34;;;10.54;73.21
13934;BME280;7039;52.168;9.866;2022-11-14T12:39:26;100567.69;;;10.61;74.25
13934;BME280;7039;52.168;9.866;2022-11-14T12:42:00;100562.03;;;10.71;74.39
13934;BME280;7039;52.168;9.866;2022-11-14T12:44:35;100568.03;;;10.90;73.64
13934;BME280;7039;52.168;9.866;2022-11-14T12:47:13;100553.03;;;11.11;72.98
13934;BME280;7039;52.168;9.866;2022-11-14T12:50:27;100546.75;;;11.15;72.38
13934;BME280;7039;52.168;9.866;2022-11-14T12:52:58;100544.81;;;11.19;72.29
13934;BME280;7039;52.168;9.866;2022-11-14T12:55:52;100535.66;;;11.27;72.54
13934;BME280;7039;52.168;9.866;2022-11-14T13:01:29;100537.66;;;11.56;72.03
13934;BME280;7039;52.168;9.866;2022-11-14T13:04:11;100537.94;;;11.67;71.71
13934;BME280;7039;52.168;9.866;2022-11-14T13:06:47;100537.69;;;11.71;71.15
13934;BME280;7039;52.168;9.866;2022-11-14T13:09:29;100523.69;;;11.57;71.45
13934;BME280;7039;52.168;9.866;2022-11-14T13:11:56;100516.19;;;11.66;71.37
13934;BME280;7039;52.168;9.866;2022-11-14T13:14:50;100507.53;;;11.66;71.45
13934;BME280;7039;52.168;9.866;2022-11-14T13:17:35;100519.16;;;11.76;71.65
13934;BME280;7039;52.168;9.866;2022-11-14T13:20:26;100510.63;;;11.90;71.06
13934;BME280;7039;52.168;9.866;2022-11-14T13:23:54;100515.16;;;12.02;70.29
13934;BME280;7039;52.168;9.866;2022-11-14T13:29:53;100513.28;;;12.20;70.20
13934;BME280;7039;52.168;9.866;2022-11-14T13:35:38;100500.16;;;12.06;70.29
13934;BME280;7039;52.168;9.866;2022-11-14T13:44:52;100503.28;;;12.43;70.00
13934;BME280;7039;52.168;9.866;2022-11-14T13:47:40;100506.16;;;12.38;69.56
13934;BME280;7039;52.168;9.866;2022-11-14T13:50:11;100500.75;;;12.41;69.20
13934;BME280;7039;52.168;9.866;2022-11-14T13:52:42;100488.78;;;12.37;69.71
13934;BME280;7039;52.168;9.866;2022-11-14T13:55:18;100476.16;;;12.29;69.85
13934;BME280;7039;52.168;9.866;2022-11-14T13:57:53;100471.59;;;12.17;69.69
13934;BME280;7039;52.168;9.866;2022-11-14T14:00:23;100463.75;;;12.17;70.16
13934;BME280;7039;52.168;9.866;2022-11-14T14:03:04;100458.78;;;12.12;70.30
13934;BME280;7039;52.168;9.866;2022-11-14T14:05:44;100458.31;;;12.06;70.42
13934;BME280;7039;52.168;9.866;2022-11-14T14:08:20;100454.44;;;12.13;70.32
13934;BME280;7039;52.168;9.866;2022-11-14T14:11:01;100452.22;;;11.74;71.32
13934;BME280;7039;52.168;9.866;2022-11-14T14:13:42;100442.88;;;11.38;72.43
13934;BME280;7039;52.168;9.866;2022-11-14T14:16:23;100440.28;;;11.04;73.67
13934;BME280;7039;52.168;9.866;2022-11-14T14:19:00;100445.41;;;10.73;75.18
13934;BME280;7039;52.168;9.866;2022-11-14T14:21:38;100442.88;;;10.36;76.66
13934;BME280;7039;52.168;9.866;2022-11-14T14:24:29;100442.75;;;10.20;77.56
13934;BME280;7039;52.168;9.866;2022-11-14T14:27:07;100431.53;;;10.01;77.83
13934;BME280;7039;52.168;9.866;2022-11-14T14:29:44;100436.28;;;9.93;78.63
13934;BME280;7039;52.168;9.866;2022-11-14T14:32:17;100430.75;;;9.81;78.60
13934;BME280;7039;52.168;9.866;2022-11-14T14:34:44;100435.84;;;9.66;79.17
13934;BME280;7039;52.168;9.866;2022-11-14T14:37:16;100440.81;;;9.51;79.88
13934;BME280;7039;52.168;9.866;2022-11-14T14:39:55;100438.53;;;9.45;80.46
13934;BME280;7039;52.168;9.866;2022-11-14T14:42:22;100426.34;;;9.27;81.33
13934;BME280;7039;52.168;9.866;2022-11-14T14:44:49;100429.16;;;9.22;81.82
13934;BME280;7039;52.168;9.866;2022-11-14T14:47:33;100430.31;;;9.15;82.43
13934;BME280;7039;52.168;9.866;2022-11-14T14:50:04;100433.34;;;9.06;82.97
13934;BME280;7039;52.168;9.866;2022-11-14T14:52:34;100423.84;;;8.86;83.86
13934;BME280;7039;52.168;9.866;2022-11-14T15:18:24;100403.72;;;8.28;86.89
13934;BME280;7039;52.168;9.866;2022-11-14T15:21:14;100400.47;;;8.23;86.82
13934;BME280;7039;52.168;9.866;2022-11-14T17:12:11;100345.69;;;6.24;99.88
13934;BME280;7039;52.168;9.866;2022-11-14T17:18:25;100345.69;;;6.24;99.39
13934;BME280;7039;52.168;9.866;2022-11-14T17:24:29;100331.56;;;6.08;100.00
13934;BME280;7039;52.168;9.866;2022-11-14T17:34:03;100347.66;;;6.18;100.00
13934;BME280;7039;52.168;9.866;2022-11-14T18:44:18;100308.34;;;6.32;99.13
13934;BME280;7039;52.168;9.866;2022-11-14T18:46:47;100307.69;;;6.25;98.80
13934;BME280;7039;52.168;9.866;2022-11-14T18:49:14;100303.53;;;6.21;98.60
13934;BME280;7039;52.168;9.866;2022-11-14T18:51:41;100295.31;;;6.08;98.13